sensor_id;sensor_type;location;lat;lon;timestamp;pressure;altitude;pressure_sealevel;temperature
15626;BMP180;7912;51.376;6.126;2023-03-01T00:01:21;102769.00;;;3.50
15626;BMP180;7912;51.376;6.126;2023-03-01T00:07:12;102767.00;;;3.40
15626;BMP180;7912;51.376;6.126;2023-03-01T00:09:39;102765.00;;;3.30
15626;BMP180;7912;51.376;6.126;2023-03-01T00:12:25;102762.00;;;3.30
15626;BMP180;7912;51.376;6.126;2023-03-01T00:14:53;102750.00;;;3.30
15626;BMP180;7912;51.376;6.126;2023-03-01T00:17:20;102759.00;;;3.30
15626;BMP180;7912;51.376;6.126;2023-03-01T00:19:47;102777.00;;;3.30
15626;BMP180;7912;51.376;6.126;2023-03-01T00:22:14;102766.00;;;3.30
15626;BMP180;7912;51.376;6.126;2023-03-01T00:24:41;102764.00;;;3.30
15626;BMP180;7912;51.376;6.126;2023-03-01T00:27:08;102767.00;;;3.30
15626;BMP180;7912;51.376;6.126;2023-03-01T00:29:36;102767.00;;;3.30
15626;BMP180;7912;51.376;6.126;2023-03-01T00:32:03;102764.00;;;3.30
15626;BMP180;7912;51.376;6.126;2023-03-01T00:34:31;102759.00;;;3.30
15626;BMP180;7912;51.376;6.126;2023-03-01T00:37:00;102740.00;;;3.30
15626;BMP180;7912;51.376;6.126;2023-03-01T00:39:32;102762.00;;;3.30
15626;BMP180;7912;51.376;6.126;2023-03-01T00:42:00;102754.00;;;3.30
15626;BMP180;7912;51.376;6.126;2023-03-01T00:44:27;102750.00;;;3.20
15626;BMP180;7912;51.376;6.126;2023-03-01T00:46:55;102732.00;;;3.20
15626;BMP180;7912;51.376;6.126;2023-03-01T00:49:22;102731.00;;;3.20
15626;BMP180;7912;51.376;6.126;2023-03-01T00:51:51;102747.00;;;3.20
15626;BMP180;7912;51.376;6.126;2023-03-01T00:54:38;102737.00;;;3.20
15626;BMP180;7912;51.376;6.126;2023-03-01T00:57:05;102740.00;;;3.20
15626;BMP180;7912;51.376;6.126;2023-03-01T01:03:01;102726.00;;;3.10
15626;BMP180;7912;51.376;6.126;2023-03-01T01:05:34;102730.00;;;3.10
15626;BMP180;7912;51.376;6.126;2023-03-01T01:08:02;102722.00;;;3.10
15626;BMP180;7912;51.376;6.126;2023-03-01T01:10:29;102725.00;;;3.00
15626;BMP180;7912;51.376;6.126;2023-03-01T01:12:56;102725.00;;;3.10
15626;BMP180;7912;51.376;6.126;2023-03-01T01:15:25;102735.00;;;3.00
15626;BMP180;7912;51.376;6.126;2023-03-01T01:21:13;102714.00;;;3.00
15626;BMP180;7912;51.376;6.126;2023-03-01T01:23:43;102711.00;;;2.90
15626;BMP180;7912;51.376;6.126;2023-03-01T01:26:36;102716.00;;;2.90
15626;BMP180;7912;51.376;6.126;2023-03-01T01:32:47;102705.00;;;2.80
15626;BMP180;7912;51.376;6.126;2023-03-01T01:35:15;102706.00;;;2.90
15626;BMP180;7912;51.376;6.126;2023-03-01T01:37:42;102701.00;;;2.80
15626;BMP180;7912;51.376;6.126;2023-03-01T01:40:10;102703.00;;;2.80
15626;BMP180;7912;51.376;6.126;2023-03-01T01:42:38;102701.00;;;2.80
15626;BMP180;7912;51.376;6.126;2023-03-01T01:45:33;102694.00;;;2.70
15626;BMP180;7912;51.376;6.126;2023-03-01T01:48:12;102691.00;;;2.70
15626;BMP180;7912;51.376;6.126;2023-03-01T01:50:41;102684.00;;;2.70
15626;BMP180;7912;51.376;6.126;2023-03-01T01:53:15;102669.00;;;2.60
15626;BMP180;7912;51.376;6.126;2023-03-01T01:55:54;102685.00;;;2.60
15626;BMP180;7912;51.376;6.126;2023-03-01T01:58:26;102680.00;;;2.60
15626;BMP180;7912;51.376;6.126;2023-03-01T02:04:19;102672.00;;;2.60
15626;BMP180;7912;51.376;6.126;2023-03-01T02:06:55;102665.00;;;2.50
15626;BMP180;7912;51.376;6.126;2023-03-01T02:09:26;102647.00;;;2.50
15626;BMP180;7912;51.376;6.126;2023-03-01T02:11:54;102643.00;;;2.50
15626;BMP180;7912;51.376;6.126;2023-03-01T02:14:21;102656.00;;;2.50
15626;BMP180;7912;51.376;6.126;2023-03-01T02:16:49;102670.00;;;2.50
15626;BMP180;7912;51.376;6.126;2023-03-01T02:22:28;102655.00;;;2.40
15626;BMP180;7912;51.376;6.126;2023-03-01T02:30:48;102667.00;;;2.40
15626;BMP180;7912;51.376;6.126;2023-03-01T02:37:17;102664.00;;;2.30
15626;BMP180;7912;51.376;6.126;2023-03-01T02:40:17;102671.00;;;2.30
15626;BMP180;7912;51.376;6.126;2023-03-01T02:42:56;102663.00;;;2.30
15626;BMP180;7912;51.376;6.126;2023-03-01T02:45:26;102654.00;;;2.30
15626;BMP180;7912;51.376;6.126;2023-03-01T02:47:57;102664.00;;;2.30
15626;BMP180;7912;51.376;6.126;2023-03-01T02:53:06;102647.00;;;2.30
15626;BMP180;7912;51.376;6.126;2023-03-01T02:55:54;102657.00;;;2.30
15626;BMP180;7912;51.376;6.126;2023-03-01T02:58:21;102656.00;;;2.20
15626;BMP180;7912;51.376;6.126;2023-03-01T03:00:48;102655.00;;;2.20
15626;BMP180;7912;51.376;6.126;2023-03-01T03:03:19;102639.00;;;2.20
15626;BMP180;7912;51.376;6.126;2023-03-01T03:05:47;102646.00;;;2.20
15626;BMP180;7912;51.376;6.126;2023-03-01T03:08:15;102649.00;;;2.20
15626;BMP180;7912;51.376;6.126;2023-03-01T03:10:51;102653.00;;;2.20
15626;BMP180;7912;51.376;6.126;2023-03-01T03:13:18;102656.00;;;2.20
15626;BMP180;7912;51.376;6.126;2023-03-01T03:19:45;102669.00;;;2.10
15626;BMP180;7912;51.376;6.126;2023-03-01T03:22:13;102660.00;;;2.10
15626;BMP180;7912;51.376;6.126;2023-03-01T03:24:40;102650.00;;;2.10
15626;BMP180;7912;51.376;6.126;2023-03-01T03:27:08;102660.00;;;2.10
15626;BMP180;7912;51.376;6.126;2023-03-01T03:29:35;102658.00;;;2.10
15626;BMP180;7912;51.376;6.126;2023-03-01T03:32:03;102662.00;;;2.00
15626;BMP180;7912;51.376;6.126;2023-03-01T03:34:30;102651.00;;;2.10
15626;BMP180;7912;51.376;6.126;2023-03-01T03:36:58;102645.00;;;2.10
15626;BMP180;7912;51.376;6.126;2023-03-01T03:39:29;102658.00;;;2.00
15626;BMP180;7912;51.376;6.126;2023-03-01T03:42:01;102657.00;;;2.00
15626;BMP180;7912;51.376;6.126;2023-03-01T03:44:29;102640.00;;;2.00
15626;BMP180;7912;51.376;6.126;2023-03-01T03:46:56;102650.00;;;2.00
15626;BMP180;7912;51.376;6.126;2023-03-01T03:49:23;102654.00;;;2.00
15626;BMP180;7912;51.376;6.126;2023-03-01T03:52:12;102638.00;;;2.00
15626;BMP180;7912;51.376;6.126;2023-03-01T03:54:40;102644.00;;;2.00
15626;BMP180;7912;51.376;6.126;2023-03-01T03:57:08;102644.00;;;2.00
15626;BMP180;7912;51.376;6.126;2023-03-01T04:00:14;102647.00;;;2.00
15626;BMP180;7912;51.376;6.126;2023-03-01T04:02:43;102650.00;;;2.00
15626;BMP180;7912;51.376;6.126;2023-03-01T04:05:13;102641.00;;;1.90
15626;BMP180;7912;51.376;6.126;2023-03-01T04:07:45;102640.00;;;1.90
15626;BMP180;7912;51.376;6.126;2023-03-01T04:10:17;102643.00;;;1.90
15626;BMP180;7912;51.376;6.126;2023-03-01T04:13:23;102646.00;;;1.90
15626;BMP180;7912;51.376;6.126;2023-03-01T04:15:53;102638.00;;;1.80
15626;BMP180;7912;51.376;6.126;2023-03-01T04:18:23;102634.00;;;1.80
15626;BMP180;7912;51.376;6.126;2023-03-01T04:20:53;102612.00;;;1.80
15626;BMP180;7912;51.376;6.126;2023-03-01T04:23:22;102622.00;;;1.80
15626;BMP180;7912;51.376;6.126;2023-03-01T04:25:56;102617.00;;;1.70
15626;BMP180;7912;51.376;6.126;2023-03-01T04:28:33;102595.00;;;1.80
15626;BMP180;7912;51.376;6.126;2023-03-01T04:31:09;102601.00;;;1.70
15626;BMP180;7912;51.376;6.126;2023-03-01T04:33:54;102591.00;;;1.70
15626;BMP180;7912;51.376;6.126;2023-03-01T04:36:26;102603.00;;;1.70
15626;BMP180;7912;51.376;6.126;2023-03-01T04:38:55;102599.00;;;1.70
15626;BMP180;7912;51.376;6.126;2023-03-01T04:41:24;102611.00;;;1.70
15626;BMP180;7912;51.376;6.126;2023-03-01T04:43:51;102600.00;;;1.70
15626;BMP180;7912;51.376;6.126;2023-03-01T04:46:20;102604.00;;;1.70
15626;BMP180;7912;51.376;6.126;2023-03-01T04:48:55;102598.00;;;1.70
15626;BMP180;7912;51.376;6.126;2023-03-01T04:51:23;102588.00;;;1.70
15626;BMP180;7912;51.376;6.126;2023-03-01T04:53:50;102611.00;;;1.70
15626;BMP180;7912;51.376;6.126;2023-03-01T04:56:20;102614.00;;;1.70
15626;BMP180;7912;51.376;6.126;2023-03-01T04:58:54;102600.00;;;1.70
15626;BMP180;7912;51.376;6.126;2023-03-01T05:01:21;102579.00;;;1.70
15626;BMP180;7912;51.376;6.126;2023-03-01T05:03:51;102589.00;;;1.70
15626;BMP180;7912;51.376;6.126;2023-03-01T05:06:20;102603.00;;;1.70
15626;BMP180;7912;51.376;6.126;2023-03-01T05:08:48;102598.00;;;1.60
15626;BMP180;7912;51.376;6.126;2023-03-01T05:11:15;102584.00;;;1.70
15626;BMP180;7912;51.376;6.126;2023-03-01T05:13:42;102589.00;;;1.60
15626;BMP180;7912;51.376;6.126;2023-03-01T05:16:10;102582.00;;;1.60
15626;BMP180;7912;51.376;6.126;2023-03-01T05:18:41;102576.00;;;1.60
15626;BMP180;7912;51.376;6.126;2023-03-01T05:21:13;102581.00;;;1.60
15626;BMP180;7912;51.376;6.126;2023-03-01T05:23:43;102572.00;;;1.60
15626;BMP180;7912;51.376;6.126;2023-03-01T05:26:11;102580.00;;;1.50
15626;BMP180;7912;51.376;6.126;2023-03-01T05:28:59;102584.00;;;1.50
15626;BMP180;7912;51.376;6.126;2023-03-01T05:31:28;102581.00;;;1.60
15626;BMP180;7912;51.376;6.126;2023-03-01T05:33:57;102579.00;;;1.60
15626;BMP180;7912;51.376;6.126;2023-03-01T05:36:24;102577.00;;;1.50
15626;BMP180;7912;51.376;6.126;2023-03-01T05:38:52;102565.00;;;1.50
15626;BMP180;7912;51.376;6.126;2023-03-01T05:41:19;102581.00;;;1.50
15626;BMP180;7912;51.376;6.126;2023-03-01T05:43:46;102574.00;;;1.50
15626;BMP180;7912;51.376;6.126;2023-03-01T05:46:14;102587.00;;;1.50
15626;BMP180;7912;51.376;6.126;2023-03-01T05:48:42;102573.00;;;1.50
15626;BMP180;7912;51.376;6.126;2023-03-01T05:51:09;102556.00;;;1.40
15626;BMP180;7912;51.376;6.126;2023-03-01T05:53:39;102573.00;;;1.50
15626;BMP180;7912;51.376;6.126;2023-03-01T05:56:06;102567.00;;;1.50
15626;BMP180;7912;51.376;6.126;2023-03-01T05:58:33;102564.00;;;1.40
15626;BMP180;7912;51.376;6.126;2023-03-01T06:01:01;102559.00;;;1.50
15626;BMP180;7912;51.376;6.126;2023-03-01T06:03:28;102565.00;;;1.40
15626;BMP180;7912;51.376;6.126;2023-03-01T06:05:57;102566.00;;;1.40
15626;BMP180;7912;51.376;6.126;2023-03-01T06:08:24;102568.00;;;1.40
15626;BMP180;7912;51.376;6.126;2023-03-01T06:10:54;102565.00;;;1.40
15626;BMP180;7912;51.376;6.126;2023-03-01T06:13:22;102554.00;;;1.40
15626;BMP180;7912;51.376;6.126;2023-03-01T06:15:50;102564.00;;;1.40
15626;BMP180;7912;51.376;6.126;2023-03-01T06:18:18;102562.00;;;1.40
15626;BMP180;7912;51.376;6.126;2023-03-01T06:20:52;102558.00;;;1.40
15626;BMP180;7912;51.376;6.126;2023-03-01T06:23:20;102567.00;;;1.40
15626;BMP180;7912;51.376;6.126;2023-03-01T06:25:47;102570.00;;;1.40
15626;BMP180;7912;51.376;6.126;2023-03-01T06:28:14;102577.00;;;1.40
15626;BMP180;7912;51.376;6.126;2023-03-01T06:30:42;102568.00;;;1.40
15626;BMP180;7912;51.376;6.126;2023-03-01T06:33:09;102575.00;;;1.40
15626;BMP180;7912;51.376;6.126;2023-03-01T06:35:36;102580.00;;;1.40
15626;BMP180;7912;51.376;6.126;2023-03-01T06:38:04;102573.00;;;1.40
15626;BMP180;7912;51.376;6.126;2023-03-01T06:40:32;102562.00;;;1.40
15626;BMP180;7912;51.376;6.126;2023-03-01T06:43:02;102566.00;;;1.40
15626;BMP180;7912;51.376;6.126;2023-03-01T06:45:29;102565.00;;;1.40
15626;BMP180;7912;51.376;6.126;2023-03-01T06:48:05;102549.00;;;1.50
15626;BMP180;7912;51.376;6.126;2023-03-01T06:50:34;102559.00;;;1.50
15626;BMP180;7912;51.376;6.126;2023-03-01T06:57:12;102565.00;;;1.40
15626;BMP180;7912;51.376;6.126;2023-03-01T06:59:40;102553.00;;;1.50
15626;BMP180;7912;51.376;6.126;2023-03-01T07:02:14;102565.00;;;1.50
15626;BMP180;7912;51.376;6.126;2023-03-01T07:04:42;102564.00;;;1.50
15626;BMP180;7912;51.376;6.126;2023-03-01T07:07:10;102569.00;;;1.50
15626;BMP180;7912;51.376;6.126;2023-03-01T07:09:38;102557.00;;;1.60
15626;BMP180;7912;51.376;6.126;2023-03-01T07:12:06;102554.00;;;1.60
15626;BMP180;7912;51.376;6.126;2023-03-01T07:14:33;102565.00;;;1.70
15626;BMP180;7912;51.376;6.126;2023-03-01T07:17:01;102575.00;;;1.70
15626;BMP180;7912;51.376;6.126;2023-03-01T07:20:05;102575.00;;;1.70
15626;BMP180;7912;51.376;6.126;2023-03-01T07:22:33;102572.00;;;1.70
15626;BMP180;7912;51.376;6.126;2023-03-01T07:25:00;102556.00;;;1.80
15626;BMP180;7912;51.376;6.126;2023-03-01T07:27:28;102577.00;;;1.90
15626;BMP180;7912;51.376;6.126;2023-03-01T07:29:55;102547.00;;;1.90
15626;BMP180;7912;51.376;6.126;2023-03-01T07:32:23;102571.00;;;2.00
15626;BMP180;7912;51.376;6.126;2023-03-01T07:34:51;102544.00;;;2.00
15626;BMP180;7912;51.376;6.126;2023-03-01T07:37:19;102574.00;;;2.10
15626;BMP180;7912;51.376;6.126;2023-03-01T07:39:46;102551.00;;;2.20
15626;BMP180;7912;51.376;6.126;2023-03-01T07:42:14;102555.00;;;2.20
15626;BMP180;7912;51.376;6.126;2023-03-01T07:44:41;102570.00;;;2.30
15626;BMP180;7912;51.376;6.126;2023-03-01T07:47:09;102571.00;;;2.30
15626;BMP180;7912;51.376;6.126;2023-03-01T07:49:36;102576.00;;;2.40
15626;BMP180;7912;51.376;6.126;2023-03-01T07:52:03;102570.00;;;2.50
15626;BMP180;7912;51.376;6.126;2023-03-01T07:54:31;102549.00;;;2.50
15626;BMP180;7912;51.376;6.126;2023-03-01T07:56:58;102566.00;;;2.60
15626;BMP180;7912;51.376;6.126;2023-03-01T07:59:26;102560.00;;;2.70
15626;BMP180;7912;51.376;6.126;2023-03-01T08:01:57;102551.00;;;2.70
15626;BMP180;7912;51.376;6.126;2023-03-01T08:07:29;102557.00;;;2.90
15626;BMP180;7912;51.376;6.126;2023-03-01T08:09:56;102558.00;;;3.00
15626;BMP180;7912;51.376;6.126;2023-03-01T08:12:23;102557.00;;;3.10
15626;BMP180;7912;51.376;6.126;2023-03-01T08:14:51;102550.00;;;3.20
15626;BMP180;7912;51.376;6.126;2023-03-01T08:17:18;102557.00;;;3.20
15626;BMP180;7912;51.376;6.126;2023-03-01T08:19:46;102545.00;;;3.30
15626;BMP180;7912;51.376;6.126;2023-03-01T08:22:14;102548.00;;;3.40
15626;BMP180;7912;51.376;6.126;2023-03-01T08:24:42;102548.00;;;3.40
15626;BMP180;7912;51.376;6.126;2023-03-01T08:27:09;102555.00;;;3.50
15626;BMP180;7912;51.376;6.126;2023-03-01T08:29:39;102551.00;;;3.60
15626;BMP180;7912;51.376;6.126;2023-03-01T08:32:10;102546.00;;;3.70
15626;BMP180;7912;51.376;6.126;2023-03-01T08:34:38;102547.00;;;3.80
15626;BMP180;7912;51.376;6.126;2023-03-01T08:37:08;102539.00;;;3.80
15626;BMP180;7912;51.376;6.126;2023-03-01T08:39:37;102529.00;;;3.90
15626;BMP180;7912;51.376;6.126;2023-03-01T08:42:05;102531.00;;;4.00
15626;BMP180;7912;51.376;6.126;2023-03-01T08:44:32;102530.00;;;4.00
15626;BMP180;7912;51.376;6.126;2023-03-01T08:47:02;102525.00;;;4.10
15626;BMP180;7912;51.376;6.126;2023-03-01T08:49:32;102532.00;;;4.10
15626;BMP180;7912;51.376;6.126;2023-03-01T08:51:59;102528.00;;;4.20
15626;BMP180;7912;51.376;6.126;2023-03-01T08:54:30;102534.00;;;4.30
15626;BMP180;7912;51.376;6.126;2023-03-01T08:57:04;102525.00;;;4.40
15626;BMP180;7912;51.376;6.126;2023-03-01T08:59:32;102526.00;;;4.50
15626;BMP180;7912;51.376;6.126;2023-03-01T09:02:10;102524.00;;;4.60
15626;BMP180;7912;51.376;6.126;2023-03-01T09:04:39;102525.00;;;4.70
15626;BMP180;7912;51.376;6.126;2023-03-01T09:07:08;102519.00;;;4.80
15626;BMP180;7912;51.376;6.126;2023-03-01T09:09:37;102513.00;;;4.80
15626;BMP180;7912;51.376;6.126;2023-03-01T09:12:05;102506.00;;;4.90
15626;BMP180;7912;51.376;6.126;2023-03-01T09:14:33;102517.00;;;5.00
15626;BMP180;7912;51.376;6.126;2023-03-01T09:17:01;102515.00;;;5.10
15626;BMP180;7912;51.376;6.126;2023-03-01T09:19:31;102512.00;;;5.20
15626;BMP180;7912;51.376;6.126;2023-03-01T09:21:59;102507.00;;;5.30
15626;BMP180;7912;51.376;6.126;2023-03-01T09:24:27;102506.00;;;5.40
15626;BMP180;7912;51.376;6.126;2023-03-01T09:26:56;102495.00;;;5.40
15626;BMP180;7912;51.376;6.126;2023-03-01T09:29:27;102500.00;;;5.50
15626;BMP180;7912;51.376;6.126;2023-03-01T09:31:55;102490.00;;;5.60
15626;BMP180;7912;51.376;6.126;2023-03-01T09:34:23;102478.00;;;5.70
15626;BMP180;7912;51.376;6.126;2023-03-01T09:36:51;102475.00;;;5.70
15626;BMP180;7912;51.376;6.126;2023-03-01T09:39:19;102486.00;;;5.80
15626;BMP180;7912;51.376;6.126;2023-03-01T09:42:06;102491.00;;;5.90
15626;BMP180;7912;51.376;6.126;2023-03-01T09:44:54;102484.00;;;6.00
15626;BMP180;7912;51.376;6.126;2023-03-01T09:47:33;102489.00;;;6.20
15626;BMP180;7912;51.376;6.126;2023-03-01T09:50:13;102478.00;;;6.30
15626;BMP180;7912;51.376;6.126;2023-03-01T09:53:04;102470.00;;;6.30
15626;BMP180;7912;51.376;6.126;2023-03-01T09:55:57;102470.00;;;6.40
15626;BMP180;7912;51.376;6.126;2023-03-01T10:01:37;102471.00;;;6.40
15626;BMP180;7912;51.376;6.126;2023-03-01T10:04:48;102470.00;;;6.60
15626;BMP180;7912;51.376;6.126;2023-03-01T10:08:13;102463.00;;;6.70
15626;BMP180;7912;51.376;6.126;2023-03-01T10:10:35;102467.00;;;7.20
15626;BMP180;7912;51.376;6.126;2023-03-01T10:13:29;102455.00;;;8.00
15626;BMP180;7912;51.376;6.126;2023-03-01T10:16:51;102456.00;;;8.80
15626;BMP180;7912;51.376;6.126;2023-03-01T10:19:31;102452.00;;;9.40
15626;BMP180;7912;51.376;6.126;2023-03-01T10:22:13;102434.00;;;9.80
15626;BMP180;7912;51.376;6.126;2023-03-01T10:24:42;102437.00;;;10.20
15626;BMP180;7912;51.376;6.126;2023-03-01T10:27:44;102420.00;;;10.50
15626;BMP180;7912;51.376;6.126;2023-03-01T10:30:40;102407.00;;;10.80
15626;BMP180;7912;51.376;6.126;2023-03-01T10:33:33;102396.00;;;11.10
15626;BMP180;7912;51.376;6.126;2023-03-01T10:36:03;102393.00;;;11.40
15626;BMP180;7912;51.376;6.126;2023-03-01T10:38:49;102398.00;;;11.70
15626;BMP180;7912;51.376;6.126;2023-03-01T10:41:17;102404.00;;;12.00
15626;BMP180;7912;51.376;6.126;2023-03-01T10:43:51;102387.00;;;12.30
15626;BMP180;7912;51.376;6.126;2023-03-01T10:46:32;102384.00;;;12.60
15626;BMP180;7912;51.376;6.126;2023-03-01T10:49:21;102373.00;;;13.10
15626;BMP180;7912;51.376;6.126;2023-03-01T10:51:52;102388.00;;;13.40
15626;BMP180;7912;51.376;6.126;2023-03-01T10:54:31;102387.00;;;13.40
15626;BMP180;7912;51.376;6.126;2023-03-01T10:57:02;102388.00;;;13.40
15626;BMP180;7912;51.376;6.126;2023-03-01T10:59:36;102381.00;;;13.40
15626;BMP180;7912;51.376;6.126;2023-03-01T11:02:26;102376.00;;;13.70
15626;BMP180;7912;51.376;6.126;2023-03-01T11:05:00;102369.00;;;13.80
15626;BMP180;7912;51.376;6.126;2023-03-01T11:07:29;102371.00;;;13.90
15626;BMP180;7912;51.376;6.126;2023-03-01T11:09:56;102359.00;;;13.90
15626;BMP180;7912;51.376;6.126;2023-03-01T11:12:25;102373.00;;;13.90
15626;BMP180;7912;51.376;6.126;2023-03-01T11:14:57;102372.00;;;14.00
15626;BMP180;7912;51.376;6.126;2023-03-01T11:17:30;102369.00;;;14.10
15626;BMP180;7912;51.376;6.126;2023-03-01T11:23:05;102370.00;;;14.50
15626;BMP180;7912;51.376;6.126;2023-03-01T11:25:54;102367.00;;;14.70
15626;BMP180;7912;51.376;6.126;2023-03-01T11:28:22;102368.00;;;15.00
15626;BMP180;7912;51.376;6.126;2023-03-01T11:33:41;102363.00;;;15.20
15626;BMP180;7912;51.376;6.126;2023-03-01T11:39:39;102368.00;;;14.80
15626;BMP180;7912;51.376;6.126;2023-03-01T11:42:17;102362.00;;;14.80
15626;BMP180;7912;51.376;6.126;2023-03-01T11:44:52;102364.00;;;14.90
15626;BMP180;7912;51.376;6.126;2023-03-01T11:50:23;102345.00;;;15.00
15626;BMP180;7912;51.376;6.126;2023-03-01T11:56:13;102346.00;;;15.40
15626;BMP180;7912;51.376;6.126;2023-03-01T12:02:23;102343.00;;;15.80
15626;BMP180;7912;51.376;6.126;2023-03-01T12:10:35;102339.00;;;15.90
15626;BMP180;7912;51.376;6.126;2023-03-01T12:21:57;102340.00;;;15.40
15626;BMP180;7912;51.376;6.126;2023-03-01T12:27:48;102334.00;;;15.50
15626;BMP180;7912;51.376;6.126;2023-03-01T12:33:42;102329.00;;;15.10
15626;BMP180;7912;51.376;6.126;2023-03-01T12:36:31;102324.00;;;14.90
15626;BMP180;7912;51.376;6.126;2023-03-01T12:47:36;102307.00;;;15.20
15626;BMP180;7912;51.376;6.126;2023-03-01T12:50:32;102302.00;;;15.20
15626;BMP180;7912;51.376;6.126;2023-03-01T12:53:02;102298.00;;;15.00
15626;BMP180;7912;51.376;6.126;2023-03-01T12:55:38;102293.00;;;14.80
15626;BMP180;7912;51.376;6.126;2023-03-01T12:58:20;102282.00;;;15.00
15626;BMP180;7912;51.376;6.126;2023-03-01T13:01:45;102289.00;;;15.20
15626;BMP180;7912;51.376;6.126;2023-03-01T13:11:00;102278.00;;;15.40
15626;BMP180;7912;51.376;6.126;2023-03-01T13:15:44;102274.00;;;15.50
15626;BMP180;7912;51.376;6.126;2023-03-01T13:20:52;102268.00;;;15.60
15626;BMP180;7912;51.376;6.126;2023-03-01T13:26:12;102266.00;;;15.70
15626;BMP180;7912;51.376;6.126;2023-03-01T13:28:57;102261.00;;;15.60
15626;BMP180;7912;51.376;6.126;2023-03-01T13:33:59;102260.00;;;15.60
15626;BMP180;7912;51.376;6.126;2023-03-01T13:39:31;102247.00;;;15.40
15626;BMP180;7912;51.376;6.126;2023-03-01T13:42:00;102245.00;;;15.40
15626;BMP180;7912;51.376;6.126;2023-03-01T13:44:37;102227.00;;;15.30
15626;BMP180;7912;51.376;6.126;2023-03-01T13:49:46;102229.00;;;15.30
15626;BMP180;7912;51.376;6.126;2023-03-01T13:54:55;102205.00;;;15.10
15626;BMP180;7912;51.376;6.126;2023-03-01T13:57:37;102207.00;;;15.20
15626;BMP180;7912;51.376;6.126;2023-03-01T14:00:07;102209.00;;;15.30
15626;BMP180;7912;51.376;6.126;2023-03-01T14:02:35;102209.00;;;15.10
15626;BMP180;7912;51.376;6.126;2023-03-01T14:05:03;102206.00;;;15.00
15626;BMP180;7912;51.376;6.126;2023-03-01T14:07:31;102200.00;;;15.00
15626;BMP180;7912;51.376;6.126;2023-03-01T14:10:03;102206.00;;;15.10
15626;BMP180;7912;51.376;6.126;2023-03-01T14:13:07;102188.00;;;15.10
15626;BMP180;7912;51.376;6.126;2023-03-01T14:18:58;102190.00;;;15.10
15626;BMP180;7912;51.376;6.126;2023-03-01T14:21:29;102176.00;;;15.10
15626;BMP180;7912;51.376;6.126;2023-03-01T14:23:58;102172.00;;;15.10
15626;BMP180;7912;51.376;6.126;2023-03-01T14:26:26;102182.00;;;15.20
15626;BMP180;7912;51.376;6.126;2023-03-01T14:28:53;102178.00;;;15.40
15626;BMP180;7912;51.376;6.126;2023-03-01T14:31:38;102185.00;;;15.60
15626;BMP180;7912;51.376;6.126;2023-03-01T14:34:24;102167.00;;;15.50
15626;BMP180;7912;51.376;6.126;2023-03-01T14:36:51;102180.00;;;15.50
15626;BMP180;7912;51.376;6.126;2023-03-01T14:39:24;102186.00;;;15.40
15626;BMP180;7912;51.376;6.126;2023-03-01T14:41:53;102167.00;;;15.30
15626;BMP180;7912;51.376;6.126;2023-03-01T14:44:23;102161.00;;;15.50
15626;BMP180;7912;51.376;6.126;2023-03-01T14:46:55;102162.00;;;15.50
15626;BMP180;7912;51.376;6.126;2023-03-01T14:49:30;102160.00;;;15.40
15626;BMP180;7912;51.376;6.126;2023-03-01T14:52:05;102162.00;;;15.40
15626;BMP180;7912;51.376;6.126;2023-03-01T14:54:51;102157.00;;;15.40
15626;BMP180;7912;51.376;6.126;2023-03-01T14:57:25;102160.00;;;15.40
15626;BMP180;7912;51.376;6.126;2023-03-01T14:59:59;102159.00;;;15.30
15626;BMP180;7912;51.376;6.126;2023-03-01T15:02:31;102157.00;;;15.20
15626;BMP180;7912;51.376;6.126;2023-03-01T15:05:03;102163.00;;;15.10
15626;BMP180;7912;51.376;6.126;2023-03-01T15:07:40;102165.00;;;15.00
15626;BMP180;7912;51.376;6.126;2023-03-01T15:10:24;102158.00;;;14.90
15626;BMP180;7912;51.376;6.126;2023-03-01T15:12:52;102157.00;;;14.90
15626;BMP180;7912;51.376;6.126;2023-03-01T15:15:36;102147.00;;;15.00
15626;BMP180;7912;51.376;6.126;2023-03-01T15:18:28;102154.00;;;14.80
15626;BMP180;7912;51.376;6.126;2023-03-01T15:21:26;102153.00;;;14.60
15626;BMP180;7912;51.376;6.126;2023-03-01T15:26:44;102148.00;;;14.10
15626;BMP180;7912;51.376;6.126;2023-03-01T15:29:20;102137.00;;;13.90
15626;BMP180;7912;51.376;6.126;2023-03-01T15:34:54;102147.00;;;13.70
15626;BMP180;7912;51.376;6.126;2023-03-01T15:37:46;102132.00;;;13.60
15626;BMP180;7912;51.376;6.126;2023-03-01T15:40:29;102135.00;;;13.70
15626;BMP180;7912;51.376;6.126;2023-03-01T15:43:06;102121.00;;;13.70
15626;BMP180;7912;51.376;6.126;2023-03-01T15:45:34;102130.00;;;13.70
15626;BMP180;7912;51.376;6.126;2023-03-01T15:48:14;102129.00;;;13.70
15626;BMP180;7912;51.376;6.126;2023-03-01T15:50:42;102129.00;;;13.70
15626;BMP180;7912;51.376;6.126;2023-03-01T15:53:13;102126.00;;;13.60
15626;BMP180;7912;51.376;6.126;2023-03-01T15:55:43;102117.00;;;13.40
15626;BMP180;7912;51.376;6.126;2023-03-01T15:58:24;102127.00;;;13.30
15626;BMP180;7912;51.376;6.126;2023-03-01T16:00:51;102127.00;;;13.10
15626;BMP180;7912;51.376;6.126;2023-03-01T16:03:30;102129.00;;;12.90
15626;BMP180;7912;51.376;6.126;2023-03-01T16:05:57;102130.00;;;12.70
15626;BMP180;7912;51.376;6.126;2023-03-01T16:08:24;102127.00;;;12.50
15626;BMP180;7912;51.376;6.126;2023-03-01T16:10:52;102129.00;;;12.20
15626;BMP180;7912;51.376;6.126;2023-03-01T16:13:21;102136.00;;;12.00
15626;BMP180;7912;51.376;6.126;2023-03-01T16:15:49;102115.00;;;11.70
15626;BMP180;7912;51.376;6.126;2023-03-01T16:18:16;102128.00;;;11.50
15626;BMP180;7912;51.376;6.126;2023-03-01T16:20:43;102107.00;;;11.30
15626;BMP180;7912;51.376;6.126;2023-03-01T16:23:11;102129.00;;;11.20
15626;BMP180;7912;51.376;6.126;2023-03-01T16:25:38;102132.00;;;11.10
15626;BMP180;7912;51.376;6.126;2023-03-01T16:28:06;102120.00;;;10.90
15626;BMP180;7912;51.376;6.126;2023-03-01T16:30:44;102117.00;;;10.80
15626;BMP180;7912;51.376;6.126;2023-03-01T16:33:12;102128.00;;;10.70
15626;BMP180;7912;51.376;6.126;2023-03-01T16:36:05;102126.00;;;10.60
15626;BMP180;7912;51.376;6.126;2023-03-01T16:38:34;102115.00;;;10.50
15626;BMP180;7912;51.376;6.126;2023-03-01T16:41:02;102117.00;;;10.40
15626;BMP180;7912;51.376;6.126;2023-03-01T16:43:30;102119.00;;;10.40
15626;BMP180;7912;51.376;6.126;2023-03-01T16:45:58;102128.00;;;10.30
15626;BMP180;7912;51.376;6.126;2023-03-01T16:48:26;102115.00;;;10.20
15626;BMP180;7912;51.376;6.126;2023-03-01T16:51:00;102105.00;;;10.10
15626;BMP180;7912;51.376;6.126;2023-03-01T16:53:28;102121.00;;;10.00
15626;BMP180;7912;51.376;6.126;2023-03-01T16:55:57;102109.00;;;10.00
15626;BMP180;7912;51.376;6.126;2023-03-01T16:58:25;102117.00;;;9.90